createdAt,value
2019-02-24T00:00:59.439Z,81.10
2019-02-24T00:03:29.981Z,80.50
2019-02-24T00:05:59.515Z,81.30
2019-02-24T00:08:29.175Z,83.60
2019-02-24T00:10:58.896Z,83.90
2019-02-24T00:13:28.334Z,85.20
2019-02-24T00:15:57.727Z,87.40
2019-02-24T00:18:27.285Z,87.70
2019-02-24T00:20:56.640Z,88.40
2019-02-24T00:23:25.990Z,89.60
2019-02-24T00:25:55.437Z,90.30
2019-02-24T00:28:25.196Z,90.60
2019-02-24T00:30:56.607Z,91.50
2019-02-24T00:33:25.926Z,91.40
2019-02-24T00:35:55.250Z,92.50
2019-02-24T00:38:24.655Z,93.10
2019-02-24T00:40:55.264Z,93.10
2019-02-24T00:43:24.767Z,94.30
2019-02-24T00:45:54.489Z,94.30
2019-02-24T00:48:24.115Z,95.40
2019-02-24T00:50:53.407Z,94.80
2019-02-24T00:53:22.874Z,95.60
2019-02-24T00:55:52.230Z,95.50
2019-02-24T00:58:21.560Z,96.00
2019-02-24T01:00:50.917Z,95.60
2019-02-24T01:03:20.347Z,95.70
2019-02-24T01:05:49.711Z,96.60
2019-02-24T01:08:27.395Z,96.10
2019-02-24T01:11:00.962Z,96.50
2019-02-24T01:13:32.185Z,96.70
2019-02-24T01:16:01.581Z,97.20
2019-02-24T01:18:32.960Z,97.10
2019-02-24T01:21:02.331Z,98.20
2019-02-24T01:23:31.652Z,98.20
2019-02-24T01:26:03.022Z,98.10
2019-02-24T01:28:32.493Z,98.00
2019-02-24T01:31:01.925Z,98.60
2019-02-24T01:33:31.434Z,98.50
2019-02-24T01:36:00.724Z,98.90
2019-02-24T01:38:30.166Z,99.00
2019-02-24T01:41:01.895Z,99.00
2019-02-24T01:43:31.406Z,99.20
2019-02-24T01:46:00.690Z,99.10
2019-02-24T01:48:31.385Z,99.00
2019-02-24T01:51:00.729Z,98.60
2019-02-24T01:53:30.066Z,98.60
2019-02-24T01:55:59.490Z,98.30
2019-02-24T01:58:34.904Z,98.80
2019-02-24T02:00:59.800Z,98.80
2019-02-24T02:03:29.042Z,99.10
2019-02-24T02:05:58.433Z,99.20
2019-02-24T02:08:29.848Z,99.90
2019-02-24T02:10:59.248Z,99.90
2019-02-24T02:13:28.650Z,99.90
2019-02-24T02:15:58.234Z,99.90
2019-02-24T02:18:28.360Z,99.90
2019-02-24T02:20:59.957Z,99.90
2019-02-24T02:23:30.347Z,99.90
2019-02-24T02:25:59.842Z,99.90
2019-02-24T02:28:29.507Z,99.90
2019-02-24T02:30:58.830Z,99.90
2019-02-24T02:33:28.073Z,99.90
2019-02-24T02:35:57.518Z,99.90
2019-02-24T02:38:28.118Z,99.90
2019-02-24T02:41:04.073Z,99.90
2019-02-24T02:43:36.104Z,99.90
2019-02-24T02:46:06.790Z,99.90
2019-02-24T02:48:36.178Z,99.90
2019-02-24T02:51:07.734Z,99.90
2019-02-24T02:53:37.224Z,99.90
2019-02-24T02:56:08.582Z,99.90
2019-02-24T02:58:37.946Z,99.90
2019-02-24T03:01:07.375Z,99.90
2019-02-24T03:03:39.011Z,99.90
2019-02-24T03:06:22.761Z,99.90
2019-02-24T03:08:53.211Z,99.90
2019-02-24T03:11:22.710Z,99.90
2019-02-24T03:13:52.031Z,99.90
2019-02-24T03:16:27.249Z,99.90
2019-02-24T03:18:56.565Z,99.90
2019-02-24T03:21:26.120Z,99.90
2019-02-24T03:23:55.873Z,99.90
2019-02-24T03:26:25.353Z,99.90
2019-02-24T03:29:14.049Z,99.90
2019-02-24T03:31:43.523Z,99.90
2019-02-24T03:34:31.960Z,99.90
2019-02-24T03:37:01.243Z,99.90
2019-02-24T03:39:33.620Z,99.90
2019-02-24T03:42:03.115Z,99.90
2019-02-24T03:44:32.735Z,99.90
2019-02-24T03:47:02.362Z,99.90
2019-02-24T03:49:31.935Z,99.90
2019-02-24T03:52:02.068Z,99.90
2019-02-24T03:54:33.419Z,99.90
2019-02-24T03:57:04.459Z,99.90
2019-02-24T03:59:34.293Z,99.90
2019-02-24T04:02:06.249Z,99.90
2019-02-24T04:04:35.759Z,99.90
2019-02-24T04:07:05.374Z,99.90
2019-02-24T04:09:36.279Z,99.90
2019-02-24T04:12:06.041Z,99.90
2019-02-24T04:14:41.517Z,99.90
2019-02-24T04:17:11.199Z,99.90
2019-02-24T04:19:40.788Z,99.90
2019-02-24T04:22:10.334Z,99.90
2019-02-24T04:24:39.908Z,99.90
2019-02-24T04:27:11.875Z,99.90
2019-02-24T04:29:41.231Z,99.90
2019-02-24T04:32:10.712Z,99.90
2019-02-24T04:34:40.293Z,99.90
2019-02-24T04:37:10.077Z,99.90
2019-02-24T04:39:39.587Z,99.90
2019-02-24T04:42:08.874Z,99.90
2019-02-24T04:44:38.456Z,99.90
2019-02-24T04:47:08.041Z,99.90
2019-02-24T04:49:44.449Z,99.90
2019-02-24T04:52:14.155Z,99.90
2019-02-24T04:54:43.743Z,99.90
2019-02-24T04:57:13.282Z,99.90
2019-02-24T04:59:42.751Z,99.90
2019-02-24T05:02:15.456Z,99.90
2019-02-24T05:04:45.174Z,99.90
2019-02-24T05:07:14.756Z,99.90
2019-02-24T05:09:44.374Z,99.90
2019-02-24T05:12:14.207Z,99.90
2019-02-24T05:14:45.779Z,99.90
2019-02-24T05:17:15.571Z,99.90
2019-02-24T05:19:45.199Z,99.90
2019-02-24T05:22:14.888Z,99.90
2019-02-24T05:24:44.311Z,99.90
2019-02-24T05:27:14.016Z,99.90
2019-02-24T05:29:46.196Z,99.90
2019-02-24T05:32:14.959Z,99.90
2019-02-24T05:35:03.331Z,99.90
2019-02-24T05:37:32.659Z,99.90
2019-02-24T05:40:01.951Z,99.90
2019-02-24T05:42:31.524Z,99.90
2019-02-24T05:45:00.846Z,99.90
2019-02-24T05:47:30.392Z,99.90
2019-02-24T05:50:00.252Z,99.90
2019-02-24T05:52:29.661Z,99.90
2019-02-24T05:54:59.098Z,99.90
2019-02-24T05:57:28.600Z,99.90
2019-02-24T05:59:58.116Z,99.90
2019-02-24T06:02:27.473Z,99.90
2019-02-24T06:04:56.944Z,99.90
2019-02-24T06:07:26.414Z,99.90
2019-02-24T06:09:55.991Z,99.90
2019-02-24T06:12:26.490Z,99.90
2019-02-24T06:14:55.899Z,99.90
2019-02-24T06:17:25.318Z,99.90
2019-02-24T06:19:54.941Z,99.90
2019-02-24T06:22:24.301Z,99.90
2019-02-24T06:24:54.137Z,99.90
2019-02-24T06:27:23.398Z,99.90
2019-02-24T06:29:52.792Z,99.90
2019-02-24T06:32:22.333Z,99.90
2019-02-24T06:34:52.428Z,99.90
2019-02-24T06:37:24.797Z,99.90
2019-02-24T06:39:54.111Z,99.90
2019-02-24T06:42:29.220Z,99.90
2019-02-24T06:44:58.367Z,99.90
2019-02-24T06:47:27.536Z,99.90
2019-02-24T06:49:57.010Z,99.90
2019-02-24T06:52:29.773Z,99.90
2019-02-24T06:54:59.042Z,99.90
2019-02-24T06:57:28.199Z,99.90
2019-02-24T06:59:58.079Z,99.90
2019-02-24T07:02:34.145Z,99.90
2019-02-24T07:05:04.569Z,99.90
2019-02-24T07:07:33.958Z,99.90
2019-02-24T07:10:03.482Z,99.90
2019-02-24T07:12:32.735Z,99.90
2019-02-24T07:15:01.803Z,99.90
2019-02-24T07:17:31.074Z,99.40
2019-02-24T07:20:00.277Z,98.30
2019-02-24T07:22:29.706Z,98.20
2019-02-24T07:25:05.094Z,97.30
2019-02-24T07:27:34.246Z,96.10
2019-02-24T07:30:03.298Z,94.50
2019-02-24T07:32:32.407Z,93.60
2019-02-24T07:35:01.659Z,93.00
2019-02-24T07:37:31.075Z,92.70
2019-02-24T07:40:00.417Z,90.80
2019-02-24T07:42:36.900Z,86.20
2019-02-24T07:45:06.149Z,84.30
2019-02-24T07:47:35.338Z,80.10
2019-02-24T07:50:04.610Z,77.50
2019-02-24T07:52:33.825Z,78.10
2019-02-24T07:55:02.853Z,77.90
2019-02-24T07:57:31.945Z,76.00
2019-02-24T08:00:01.031Z,69.90
2019-02-24T08:02:31.106Z,68.00
2019-02-24T08:05:00.352Z,63.00
2019-02-24T08:07:29.443Z,58.30
2019-02-24T08:09:58.537Z,55.90
2019-02-24T08:12:28.638Z,54.40
2019-02-24T08:14:57.674Z,52.30
2019-02-24T08:17:26.806Z,50.90
2019-02-24T08:19:55.957Z,50.30
2019-02-24T08:22:25.158Z,50.20
2019-02-24T08:24:54.307Z,51.90
2019-02-24T08:27:23.406Z,52.40
2019-02-24T08:29:52.598Z,53.40
2019-02-24T08:32:21.689Z,52.80
2019-02-24T08:34:52.909Z,53.10
2019-02-24T08:37:21.777Z,49.90
2019-02-24T08:39:50.885Z,50.50
2019-02-24T08:42:19.952Z,49.40
2019-02-24T08:44:49.122Z,46.20
2019-02-24T08:47:19.280Z,43.00
2019-02-24T08:49:48.377Z,37.50
2019-02-24T08:52:17.475Z,36.60
2019-02-24T08:54:46.757Z,36.20
2019-02-24T08:57:15.927Z,34.20
2019-02-24T08:59:45.129Z,34.40
2019-02-24T09:02:14.286Z,32.70
2019-02-24T09:04:43.298Z,33.20
2019-02-24T09:07:12.330Z,31.80
2019-02-24T09:09:41.426Z,33.50
2019-02-24T09:12:10.722Z,33.50
2019-02-24T09:14:39.945Z,32.70
2019-02-24T09:17:09.146Z,31.50
2019-02-24T09:19:38.360Z,31.70
2019-02-24T09:22:07.917Z,32.10
2019-02-24T09:24:37.531Z,31.30
2019-02-24T09:27:06.941Z,32.00
2019-02-24T09:29:36.073Z,33.70
2019-02-24T09:32:05.048Z,32.50
2019-02-24T09:34:34.241Z,32.80
2019-02-24T09:37:03.308Z,33.20
2019-02-24T09:39:32.383Z,34.10
2019-02-24T09:42:01.539Z,35.80
2019-02-24T09:44:30.638Z,37.30
2019-02-24T09:46:59.815Z,37.00
2019-02-24T09:49:28.973Z,36.20
2019-02-24T09:51:58.244Z,34.40
2019-02-24T09:54:32.687Z,33.80
2019-02-24T09:57:06.108Z,35.10
2019-02-24T09:59:38.402Z,34.00
2019-02-24T10:02:07.685Z,34.10
2019-02-24T10:04:36.826Z,34.60
2019-02-24T10:07:06.481Z,35.10
2019-02-24T10:09:35.704Z,32.90
2019-02-24T10:12:04.924Z,32.80
2019-02-24T10:14:35.373Z,33.20
2019-02-24T10:17:11.740Z,34.10
2019-02-24T10:19:40.995Z,34.20
2019-02-24T10:22:10.138Z,33.40
2019-02-24T10:24:40.825Z,33.90
2019-02-24T10:27:09.950Z,35.10
2019-02-24T10:29:41.194Z,33.60
2019-02-24T10:32:10.319Z,33.90
2019-02-24T10:34:39.490Z,34.10
2019-02-24T10:37:08.654Z,34.50
2019-02-24T10:39:38.733Z,35.20
2019-02-24T10:42:07.910Z,36.20
2019-02-24T10:44:37.129Z,36.10
2019-02-24T10:47:08.466Z,35.70
2019-02-24T10:49:37.558Z,35.10
2019-02-24T10:52:07.975Z,35.10
2019-02-24T10:54:37.276Z,35.10
2019-02-24T10:57:09.779Z,34.10
2019-02-24T10:59:37.256Z,34.60
2019-02-24T11:02:07.780Z,33.40
2019-02-24T11:04:36.914Z,33.20
2019-02-24T11:07:06.127Z,32.70
2019-02-24T11:09:35.230Z,33.40
2019-02-24T11:12:04.490Z,33.10
2019-02-24T11:14:39.509Z,32.60
2019-02-24T11:17:08.711Z,33.10
2019-02-24T11:19:37.886Z,34.50
2019-02-24T11:22:07.004Z,35.20
2019-02-24T11:24:36.232Z,35.10
2019-02-24T11:27:07.862Z,34.70
2019-02-24T11:29:37.145Z,35.00
2019-02-24T11:32:07.378Z,35.20
2019-02-24T11:34:38.138Z,35.50
2019-02-24T11:37:10.311Z,35.10
2019-02-24T11:39:39.482Z,35.50
2019-02-24T11:42:08.702Z,33.90
2019-02-24T11:44:37.887Z,34.70
2019-02-24T11:47:09.405Z,34.20
2019-02-24T11:49:39.092Z,33.00
2019-02-24T11:52:12.114Z,34.50
2019-02-24T11:55:02.415Z,34.50
2019-02-24T11:57:33.675Z,34.00
2019-02-24T12:00:05.538Z,33.70
2019-02-24T12:02:35.272Z,34.60
2019-02-24T12:05:11.220Z,34.20
2019-02-24T12:07:43.473Z,34.50
2019-02-24T12:10:13.016Z,33.40
2019-02-24T12:12:42.868Z,32.70
2019-02-24T12:15:15.729Z,32.90
2019-02-24T12:17:48.239Z,33.20
2019-02-24T12:20:22.591Z,33.80
2019-02-24T12:22:55.398Z,33.80
2019-02-24T12:25:25.699Z,34.30
2019-02-24T12:27:55.427Z,33.70
2019-02-24T12:30:25.034Z,34.30
2019-02-24T12:32:54.887Z,33.30
2019-02-24T12:35:25.442Z,34.20
2019-02-24T12:37:55.354Z,33.70
2019-02-24T12:40:25.045Z,33.20
2019-02-24T12:42:54.716Z,33.30
2019-02-24T12:45:24.095Z,32.40
2019-02-24T12:47:53.499Z,33.70
2019-02-24T12:50:23.123Z,33.00
2019-02-24T12:52:52.834Z,34.10
2019-02-24T12:55:22.847Z,32.50
2019-02-24T12:57:55.319Z,32.10
2019-02-24T13:00:25.455Z,32.80
2019-02-24T13:02:56.967Z,32.30
2019-02-24T13:05:26.491Z,31.20
2019-02-24T13:07:56.292Z,30.40
2019-02-24T13:10:28.610Z,30.70
2019-02-24T13:12:58.227Z,30.20
2019-02-24T13:15:27.827Z,29.00
2019-02-24T13:18:02.387Z,29.60
2019-02-24T13:20:35.272Z,29.90
2019-02-24T13:23:05.075Z,29.50
2019-02-24T13:28:23.756Z,28.20
2019-02-24T13:30:53.445Z,28.90
2019-02-24T13:33:25.974Z,29.40
2019-02-24T13:35:56.684Z,28.80
2019-02-24T13:38:26.459Z,26.90
2019-02-24T13:40:55.967Z,27.00
2019-02-24T13:43:28.672Z,27.10
2019-02-24T13:45:58.438Z,27.40
2019-02-24T13:48:28.167Z,25.80
2019-02-24T13:50:57.385Z,24.20
2019-02-24T13:53:26.430Z,22.70
2019-02-24T13:55:56.013Z,22.60
2019-02-24T13:58:25.107Z,22.50
2019-02-24T14:00:54.791Z,22.70
2019-02-24T14:03:23.993Z,23.90
2019-02-24T14:05:53.059Z,24.70
2019-02-24T14:08:22.188Z,24.50
2019-02-24T14:10:51.397Z,25.10
2019-02-24T14:13:20.487Z,24.80
2019-02-24T14:15:49.533Z,25.70
2019-02-24T14:18:18.598Z,25.90
2019-02-24T14:20:47.781Z,27.80
2019-02-24T14:23:16.811Z,28.60
2019-02-24T14:25:46.094Z,29.30
2019-02-24T14:28:15.621Z,30.20
2019-02-24T14:30:44.765Z,30.00
2019-02-24T14:33:13.757Z,31.10
2019-02-24T14:35:42.885Z,30.70
2019-02-24T14:38:12.005Z,29.70
2019-02-24T14:40:40.942Z,30.00
2019-02-24T14:43:09.961Z,30.10
2019-02-24T14:45:39.105Z,31.30
2019-02-24T14:48:08.201Z,30.60
2019-02-24T14:50:37.371Z,30.60
2019-02-24T14:53:06.545Z,31.10
2019-02-24T14:55:35.694Z,31.60
2019-02-24T14:58:04.795Z,33.00
2019-02-24T15:00:34.023Z,32.30
2019-02-24T15:03:03.022Z,33.20
2019-02-24T15:05:32.136Z,33.70
2019-02-24T15:08:01.210Z,34.00
2019-02-24T15:10:30.241Z,34.20
2019-02-24T15:12:59.480Z,34.10
2019-02-24T15:15:33.112Z,34.50
2019-02-24T15:17:59.938Z,33.50
2019-02-24T15:20:29.059Z,33.80
2019-02-24T15:22:58.184Z,34.30
2019-02-24T15:25:27.290Z,33.60
2019-02-24T15:27:56.484Z,34.30
2019-02-24T15:33:03.429Z,34.80
2019-02-24T15:35:32.602Z,34.30
2019-02-24T15:38:01.758Z,35.10
2019-02-24T15:40:31.031Z,35.90
2019-02-24T15:43:01.358Z,36.60
2019-02-24T15:45:30.836Z,37.10
2019-02-24T15:48:02.088Z,37.90
2019-02-24T15:50:33.278Z,36.30
2019-02-24T15:53:04.525Z,35.90
2019-02-24T15:55:33.555Z,36.60
2019-02-24T15:58:02.750Z,36.90
2019-02-24T16:00:31.816Z,36.70
2019-02-24T16:03:01.946Z,37.60
2019-02-24T16:05:33.268Z,37.30
2019-02-24T16:08:02.171Z,38.60
2019-02-24T16:10:31.404Z,39.60
2019-02-24T16:13:00.646Z,38.70
2019-02-24T16:15:29.811Z,38.90
2019-02-24T16:17:58.886Z,39.30
2019-02-24T16:20:30.891Z,39.10
2019-02-24T16:23:00.093Z,40.20
2019-02-24T16:25:29.161Z,40.40
2019-02-24T16:27:58.267Z,40.40
2019-02-24T16:30:27.333Z,40.20
2019-02-24T16:32:56.701Z,40.00
2019-02-24T16:35:26.029Z,40.10
2019-02-24T16:37:55.247Z,40.50
2019-02-24T16:40:24.601Z,41.00
2019-02-24T16:42:54.733Z,41.60
2019-02-24T16:45:23.867Z,41.80
2019-02-24T16:47:52.886Z,41.60
2019-02-24T16:50:22.003Z,41.70
2019-02-24T16:52:51.081Z,42.30
2019-02-24T16:55:21.457Z,43.00
2019-02-24T16:57:50.715Z,43.40
2019-02-24T17:00:22.084Z,44.30
2019-02-24T17:02:51.362Z,43.70
2019-02-24T17:05:22.813Z,43.90
2019-02-24T17:07:52.019Z,44.30
2019-02-24T17:10:21.400Z,44.70
2019-02-24T17:12:50.712Z,46.00
2019-02-24T17:15:19.864Z,46.30
2019-02-24T17:17:51.340Z,45.10
2019-02-24T17:20:20.717Z,45.40
2019-02-24T17:22:50.893Z,46.40
2019-02-24T17:25:20.002Z,46.50
2019-02-24T17:27:50.182Z,46.80
2019-02-24T17:30:19.274Z,47.10
2019-02-24T17:32:49.168Z,47.40
2019-02-24T17:35:18.451Z,48.00
2019-02-24T17:37:48.716Z,49.40
2019-02-24T17:40:19.654Z,49.60
2019-02-24T17:42:49.132Z,50.00
2019-02-24T17:45:19.489Z,50.00
2019-02-24T17:47:51.461Z,50.10
2019-02-24T17:50:21.765Z,50.60
2019-02-24T17:52:50.945Z,51.00
2019-02-24T17:55:20.230Z,52.40
2019-02-24T17:57:49.466Z,52.50
2019-02-24T18:00:26.770Z,52.40
2019-02-24T18:02:55.946Z,52.10
2019-02-24T18:05:25.180Z,52.10
2019-02-24T18:07:54.357Z,52.80
2019-02-24T18:10:26.653Z,52.90
2019-02-24T18:12:56.849Z,53.50
2019-02-24T18:15:27.206Z,53.90
2019-02-24T18:17:56.439Z,53.80
2019-02-24T18:20:25.702Z,53.80
2019-02-24T18:22:55.015Z,54.20
2019-02-24T18:25:25.154Z,54.40
2019-02-24T18:27:54.335Z,55.20
2019-02-24T18:30:23.950Z,55.40
2019-02-24T18:32:53.106Z,55.70
2019-02-24T18:35:22.196Z,56.10
2019-02-24T18:37:53.548Z,56.50
2019-02-24T18:40:22.626Z,57.10
2019-02-24T18:42:59.813Z,57.40
2019-02-24T18:45:25.118Z,57.60
2019-02-24T18:47:54.280Z,58.10
2019-02-24T18:50:23.414Z,58.60
2019-02-24T18:52:52.617Z,58.80
2019-02-24T18:55:28.052Z,58.90
2019-02-24T18:57:57.481Z,59.20
2019-02-24T19:05:39.038Z,59.40
2019-02-24T19:08:09.134Z,59.70
2019-02-24T19:10:38.322Z,60.70
2019-02-24T19:13:08.409Z,61.40
2019-02-24T19:15:37.641Z,61.60
2019-02-24T19:18:06.906Z,61.60
2019-02-24T19:20:36.166Z,62.10
2019-02-24T19:23:06.399Z,63.20
2019-02-24T19:25:35.580Z,63.50
2019-02-24T19:28:08.083Z,63.40
2019-02-24T19:30:41.178Z,64.20
2019-02-24T19:33:11.607Z,64.10
2019-02-24T19:35:41.594Z,64.50
2019-02-24T19:38:13.777Z,65.00
2019-02-24T19:40:44.204Z,64.80
2019-02-24T19:43:14.624Z,65.80
2019-02-24T19:45:49.879Z,66.20
2019-02-24T19:48:22.419Z,67.20
2019-02-24T19:50:51.500Z,67.70
2019-02-24T19:53:20.589Z,67.90
2019-02-24T19:55:49.670Z,68.60
2019-02-24T19:58:21.124Z,69.90
2019-02-24T20:00:50.326Z,69.60
2019-02-24T20:03:25.782Z,69.70
2019-02-24T20:05:55.003Z,70.60
2019-02-24T20:08:24.270Z,70.90
2019-02-24T20:10:53.407Z,71.10
2019-02-24T20:13:23.597Z,72.50
2019-02-24T20:15:54.922Z,72.90
2019-02-24T20:18:24.291Z,73.50
2019-02-24T20:20:53.633Z,74.20
2019-02-24T20:23:22.926Z,74.50
2019-02-24T20:25:52.253Z,74.90
2019-02-24T20:28:21.611Z,75.30
2019-02-24T20:30:51.010Z,75.90
2019-02-24T20:33:20.226Z,76.10
2019-02-24T20:35:49.475Z,76.70
2019-02-24T20:38:21.945Z,77.10
2019-02-24T20:40:52.155Z,77.60
2019-02-24T20:43:25.136Z,78.30
2019-02-24T20:45:55.462Z,79.00
2019-02-24T20:48:25.694Z,79.40
2019-02-24T20:50:56.150Z,80.00
2019-02-24T20:53:27.568Z,80.70
2019-02-24T20:55:59.015Z,81.20
2019-02-24T20:58:29.338Z,82.20
2019-02-24T21:01:02.864Z,82.80
2019-02-24T21:03:37.284Z,83.80
2019-02-24T21:06:06.983Z,85.60
2019-02-24T21:08:36.408Z,86.00
2019-02-24T21:11:07.817Z,86.10
2019-02-24T21:13:37.651Z,87.20
2019-02-24T21:16:15.179Z,87.20
2019-02-24T21:18:55.902Z,88.60
2019-02-24T21:21:26.139Z,88.60
2019-02-24T21:23:59.604Z,89.00
2019-02-24T21:26:30.655Z,89.50
2019-02-24T21:29:00.083Z,89.40
2019-02-24T21:31:33.694Z,90.00
2019-02-24T21:34:02.950Z,90.30
2019-02-24T21:36:35.818Z,90.60
2019-02-24T21:39:10.944Z,90.70
2019-02-24T21:41:42.110Z,91.20
2019-02-24T21:44:12.963Z,91.40
2019-02-24T21:46:43.219Z,91.80
2019-02-24T21:49:12.299Z,91.50
2019-02-24T21:51:47.617Z,91.70
2019-02-24T21:54:17.097Z,92.10
2019-02-24T21:56:47.733Z,92.50
2019-02-24T21:59:16.944Z,92.80
2019-02-24T22:01:48.779Z,93.60
2019-02-24T22:04:18.936Z,93.40
2019-02-24T22:06:50.725Z,93.80
2019-02-24T22:09:20.182Z,94.30
2019-02-24T22:11:51.929Z,94.50
2019-02-24T22:14:21.471Z,95.40
2019-02-24T22:16:57.903Z,95.70
2019-02-24T22:19:28.364Z,95.90
2019-02-24T22:21:58.712Z,95.80
2019-02-24T22:24:30.016Z,96.20
2019-02-24T22:27:00.215Z,97.30
2019-02-24T22:29:30.394Z,96.50
2019-02-24T22:32:00.550Z,96.90
2019-02-24T22:34:31.817Z,96.70
2019-02-24T22:37:00.983Z,97.40
2019-02-24T22:39:31.998Z,97.70
2019-02-24T22:42:01.214Z,97.80
2019-02-24T22:44:32.473Z,97.70
2019-02-24T22:47:11.810Z,97.70
2019-02-24T22:49:43.178Z,97.80
2019-02-24T22:52:14.382Z,97.60
2019-02-24T22:54:45.538Z,97.70
2019-02-24T22:57:14.746Z,97.80
2019-02-24T22:59:44.108Z,97.80
2019-02-24T23:02:14.051Z,98.20
2019-02-24T23:04:43.193Z,98.20
2019-02-24T23:07:12.333Z,98.70
2019-02-24T23:09:41.474Z,98.90
2019-02-24T23:12:10.701Z,99.20
2019-02-24T23:14:39.834Z,99.20
2019-02-24T23:17:09.011Z,99.40
2019-02-24T23:19:38.265Z,99.30
2019-02-24T23:22:07.583Z,99.30
2019-02-24T23:24:36.682Z,99.90
2019-02-24T23:27:05.869Z,99.90
2019-02-24T23:29:35.413Z,99.90
2019-02-24T23:32:04.701Z,99.90
2019-02-24T23:34:35.941Z,99.90
2019-02-24T23:37:05.133Z,99.90
2019-02-24T23:39:34.359Z,99.90
2019-02-24T23:42:03.670Z,99.90
2019-02-24T23:44:32.933Z,99.90
2019-02-24T23:47:02.110Z,99.90
2019-02-24T23:49:31.326Z,99.90
2019-02-24T23:52:00.655Z,99.90
2019-02-24T23:54:29.913Z,99.90
2019-02-24T23:56:59.117Z,99.90
2019-02-24T23:59:29.255Z,99.90
